sensor_id;sensor_type;location;lat;lon;timestamp;P1;durP1;ratioP1;P2;durP2;ratioP2
18100;SDS011;9177;49.156;8.142;2023-04-29T00:00:11;0.53;;;0.53;;
18100;SDS011;9177;49.156;8.142;2023-04-29T00:02:41;0.60;;;0.60;;
18100;SDS011;9177;49.156;8.142;2023-04-29T00:05:10;1.63;;;0.60;;
18100;SDS011;9177;49.156;8.142;2023-04-29T00:07:37;0.93;;;0.60;;
18100;SDS011;9177;49.156;8.142;2023-04-29T00:10:04;0.50;;;0.50;;
18100;SDS011;9177;49.156;8.142;2023-04-29T00:12:32;0.70;;;0.70;;
18100;SDS011;9177;49.156;8.142;2023-04-29T00:14:59;0.90;;;0.60;;
18100;SDS011;9177;49.156;8.142;2023-04-29T00:17:26;1.23;;;0.80;;
18100;SDS011;9177;49.156;8.142;2023-04-29T00:19:53;0.47;;;0.43;;
18100;SDS011;9177;49.156;8.142;2023-04-29T00:22:25;1.00;;;0.70;;
18100;SDS011;9177;49.156;8.142;2023-04-29T00:24:54;0.60;;;0.57;;
18100;SDS011;9177;49.156;8.142;2023-04-29T00:27:21;0.60;;;0.60;;
18100;SDS011;9177;49.156;8.142;2023-04-29T00:29:48;1.70;;;0.70;;
18100;SDS011;9177;49.156;8.142;2023-04-29T00:32:14;0.70;;;0.70;;
18100;SDS011;9177;49.156;8.142;2023-04-29T00:34:41;0.50;;;0.50;;
18100;SDS011;9177;49.156;8.142;2023-04-29T00:37:12;1.03;;;0.77;;
18100;SDS011;9177;49.156;8.142;2023-04-29T00:39:40;0.90;;;0.63;;
18100;SDS011;9177;49.156;8.142;2023-04-29T00:42:07;0.90;;;0.70;;
18100;SDS011;9177;49.156;8.142;2023-04-29T00:44:35;0.73;;;0.70;;
18100;SDS011;9177;49.156;8.142;2023-04-29T00:47:02;0.83;;;0.60;;
18100;SDS011;9177;49.156;8.142;2023-04-29T00:49:29;0.50;;;0.50;;
18100;SDS011;9177;49.156;8.142;2023-04-29T00:51:57;0.63;;;0.63;;
18100;SDS011;9177;49.156;8.142;2023-04-29T00:54:26;1.10;;;0.70;;
18100;SDS011;9177;49.156;8.142;2023-04-29T00:56:54;0.80;;;0.53;;
18100;SDS011;9177;49.156;8.142;2023-04-29T00:59:23;0.60;;;0.60;;
18100;SDS011;9177;49.156;8.142;2023-04-29T01:01:56;1.77;;;0.60;;
18100;SDS011;9177;49.156;8.142;2023-04-29T01:04:24;0.60;;;0.40;;
18100;SDS011;9177;49.156;8.142;2023-04-29T01:06:53;1.93;;;0.80;;
18100;SDS011;9177;49.156;8.142;2023-04-29T01:09:30;0.63;;;0.50;;
18100;SDS011;9177;49.156;8.142;2023-04-29T01:12:14;1.23;;;0.70;;
18100;SDS011;9177;49.156;8.142;2023-04-29T01:14:47;0.83;;;0.83;;
18100;SDS011;9177;49.156;8.142;2023-04-29T01:17:19;1.00;;;0.77;;
18100;SDS011;9177;49.156;8.142;2023-04-29T01:19:51;1.33;;;0.93;;
18100;SDS011;9177;49.156;8.142;2023-04-29T01:22:20;0.50;;;0.50;;
18100;SDS011;9177;49.156;8.142;2023-04-29T01:24:49;0.63;;;0.60;;
18100;SDS011;9177;49.156;8.142;2023-04-29T01:27:27;0.70;;;0.60;;
18100;SDS011;9177;49.156;8.142;2023-04-29T01:29:59;0.83;;;0.60;;
18100;SDS011;9177;49.156;8.142;2023-04-29T01:32:36;0.60;;;0.53;;
18100;SDS011;9177;49.156;8.142;2023-04-29T01:35:21;0.70;;;0.70;;
18100;SDS011;9177;49.156;8.142;2023-04-29T01:38:06;1.47;;;0.70;;
18100;SDS011;9177;49.156;8.142;2023-04-29T01:40:46;1.30;;;0.60;;
18100;SDS011;9177;49.156;8.142;2023-04-29T01:43:20;0.77;;;0.77;;
18100;SDS011;9177;49.156;8.142;2023-04-29T01:45:49;0.77;;;0.60;;
18100;SDS011;9177;49.156;8.142;2023-04-29T01:48:17;1.53;;;0.70;;
18100;SDS011;9177;49.156;8.142;2023-04-29T01:50:45;0.87;;;0.60;;
18100;SDS011;9177;49.156;8.142;2023-04-29T01:53:12;0.87;;;0.60;;
18100;SDS011;9177;49.156;8.142;2023-04-29T01:55:39;0.80;;;0.70;;
18100;SDS011;9177;49.156;8.142;2023-04-29T01:58:09;1.27;;;0.80;;
18100;SDS011;9177;49.156;8.142;2023-04-29T02:00:35;0.60;;;0.60;;
18100;SDS011;9177;49.156;8.142;2023-04-29T02:03:03;2.00;;;0.87;;
18100;SDS011;9177;49.156;8.142;2023-04-29T02:05:30;0.70;;;0.50;;
18100;SDS011;9177;49.156;8.142;2023-04-29T02:07:58;0.87;;;0.70;;
18100;SDS011;9177;49.156;8.142;2023-04-29T02:10:25;1.30;;;0.63;;
18100;SDS011;9177;49.156;8.142;2023-04-29T02:12:52;0.63;;;0.63;;
18100;SDS011;9177;49.156;8.142;2023-04-29T02:15:20;1.97;;;0.70;;
18100;SDS011;9177;49.156;8.142;2023-04-29T02:17:47;0.57;;;0.57;;
18100;SDS011;9177;49.156;8.142;2023-04-29T02:20:14;0.60;;;0.60;;
18100;SDS011;9177;49.156;8.142;2023-04-29T02:22:41;0.60;;;0.60;;
18100;SDS011;9177;49.156;8.142;2023-04-29T02:25:08;0.73;;;0.63;;
18100;SDS011;9177;49.156;8.142;2023-04-29T02:27:36;0.63;;;0.60;;
18100;SDS011;9177;49.156;8.142;2023-04-29T02:30:03;0.70;;;0.70;;
18100;SDS011;9177;49.156;8.142;2023-04-29T02:32:32;0.60;;;0.60;;
18100;SDS011;9177;49.156;8.142;2023-04-29T02:34:59;0.73;;;0.70;;
18100;SDS011;9177;49.156;8.142;2023-04-29T02:37:28;0.50;;;0.50;;
18100;SDS011;9177;49.156;8.142;2023-04-29T02:39:55;0.87;;;0.60;;
18100;SDS011;9177;49.156;8.142;2023-04-29T02:42:22;0.80;;;0.70;;
18100;SDS011;9177;49.156;8.142;2023-04-29T02:44:49;0.97;;;0.80;;
18100;SDS011;9177;49.156;8.142;2023-04-29T02:47:16;1.30;;;0.77;;
18100;SDS011;9177;49.156;8.142;2023-04-29T02:49:44;0.60;;;0.60;;
18100;SDS011;9177;49.156;8.142;2023-04-29T02:52:11;0.60;;;0.60;;
18100;SDS011;9177;49.156;8.142;2023-04-29T02:54:38;0.60;;;0.60;;
18100;SDS011;9177;49.156;8.142;2023-04-29T02:57:05;0.70;;;0.70;;
18100;SDS011;9177;49.156;8.142;2023-04-29T02:59:33;1.70;;;0.70;;
18100;SDS011;9177;49.156;8.142;2023-04-29T03:02:03;0.50;;;0.50;;
18100;SDS011;9177;49.156;8.142;2023-04-29T03:04:29;0.73;;;0.73;;
18100;SDS011;9177;49.156;8.142;2023-04-29T03:06:58;0.67;;;0.50;;
18100;SDS011;9177;49.156;8.142;2023-04-29T03:09:24;0.60;;;0.60;;
18100;SDS011;9177;49.156;8.142;2023-04-29T03:11:51;0.57;;;0.57;;
18100;SDS011;9177;49.156;8.142;2023-04-29T03:14:18;0.70;;;0.63;;
18100;SDS011;9177;49.156;8.142;2023-04-29T03:16:45;0.50;;;0.50;;
18100;SDS011;9177;49.156;8.142;2023-04-29T03:19:12;0.60;;;0.53;;
18100;SDS011;9177;49.156;8.142;2023-04-29T03:21:39;0.90;;;0.70;;
18100;SDS011;9177;49.156;8.142;2023-04-29T03:24:07;1.80;;;0.50;;
18100;SDS011;9177;49.156;8.142;2023-04-29T03:26:34;2.30;;;0.73;;
18100;SDS011;9177;49.156;8.142;2023-04-29T03:29:01;1.47;;;0.50;;
18100;SDS011;9177;49.156;8.142;2023-04-29T03:31:27;1.07;;;0.63;;
18100;SDS011;9177;49.156;8.142;2023-04-29T03:33:54;0.60;;;0.60;;
18100;SDS011;9177;49.156;8.142;2023-04-29T03:36:21;1.00;;;0.60;;
18100;SDS011;9177;49.156;8.142;2023-04-29T03:38:48;0.77;;;0.67;;
18100;SDS011;9177;49.156;8.142;2023-04-29T03:41:19;0.93;;;0.70;;
18100;SDS011;9177;49.156;8.142;2023-04-29T03:43:51;0.73;;;0.70;;
18100;SDS011;9177;49.156;8.142;2023-04-29T03:46:19;0.50;;;0.50;;
18100;SDS011;9177;49.156;8.142;2023-04-29T03:48:45;0.60;;;0.60;;
18100;SDS011;9177;49.156;8.142;2023-04-29T03:51:12;0.63;;;0.63;;
18100;SDS011;9177;49.156;8.142;2023-04-29T03:53:39;1.17;;;0.70;;
18100;SDS011;9177;49.156;8.142;2023-04-29T03:56:06;0.60;;;0.60;;
18100;SDS011;9177;49.156;8.142;2023-04-29T03:58:34;0.70;;;0.70;;
18100;SDS011;9177;49.156;8.142;2023-04-29T04:01:01;1.00;;;0.60;;
18100;SDS011;9177;49.156;8.142;2023-04-29T04:03:28;0.50;;;0.50;;
18100;SDS011;9177;49.156;8.142;2023-04-29T04:05:55;0.50;;;0.50;;
18100;SDS011;9177;49.156;8.142;2023-04-29T04:08:21;1.03;;;0.70;;
18100;SDS011;9177;49.156;8.142;2023-04-29T04:10:49;1.00;;;0.50;;
18100;SDS011;9177;49.156;8.142;2023-04-29T04:13:15;0.53;;;0.50;;
18100;SDS011;9177;49.156;8.142;2023-04-29T04:15:49;0.60;;;0.60;;
18100;SDS011;9177;49.156;8.142;2023-04-29T04:18:16;0.77;;;0.60;;
18100;SDS011;9177;49.156;8.142;2023-04-29T04:20:43;0.60;;;0.53;;
18100;SDS011;9177;49.156;8.142;2023-04-29T04:23:09;0.80;;;0.63;;
18100;SDS011;9177;49.156;8.142;2023-04-29T04:25:36;1.33;;;0.57;;
18100;SDS011;9177;49.156;8.142;2023-04-29T04:28:03;0.60;;;0.60;;
18100;SDS011;9177;49.156;8.142;2023-04-29T04:30:30;0.70;;;0.60;;
18100;SDS011;9177;49.156;8.142;2023-04-29T04:32:59;2.37;;;0.70;;
18100;SDS011;9177;49.156;8.142;2023-04-29T04:35:26;0.80;;;0.60;;
18100;SDS011;9177;49.156;8.142;2023-04-29T04:37:53;1.23;;;0.60;;
18100;SDS011;9177;49.156;8.142;2023-04-29T04:40:20;0.53;;;0.50;;
18100;SDS011;9177;49.156;8.142;2023-04-29T04:42:46;0.50;;;0.50;;
18100;SDS011;9177;49.156;8.142;2023-04-29T04:45:13;0.60;;;0.50;;
18100;SDS011;9177;49.156;8.142;2023-04-29T04:47:40;0.60;;;0.57;;
18100;SDS011;9177;49.156;8.142;2023-04-29T04:50:09;0.50;;;0.50;;
18100;SDS011;9177;49.156;8.142;2023-04-29T04:52:36;0.80;;;0.70;;
18100;SDS011;9177;49.156;8.142;2023-04-29T04:55:03;0.53;;;0.40;;
18100;SDS011;9177;49.156;8.142;2023-04-29T04:57:30;1.23;;;0.60;;
18100;SDS011;9177;49.156;8.142;2023-04-29T04:59:56;0.60;;;0.60;;
18100;SDS011;9177;49.156;8.142;2023-04-29T05:02:23;1.17;;;0.50;;
18100;SDS011;9177;49.156;8.142;2023-04-29T05:04:50;0.73;;;0.73;;
18100;SDS011;9177;49.156;8.142;2023-04-29T05:07:18;0.47;;;0.47;;
18100;SDS011;9177;49.156;8.142;2023-04-29T05:09:45;0.70;;;0.60;;
18100;SDS011;9177;49.156;8.142;2023-04-29T05:12:12;0.50;;;0.50;;
18100;SDS011;9177;49.156;8.142;2023-04-29T05:14:39;0.63;;;0.50;;
18100;SDS011;9177;49.156;8.142;2023-04-29T05:17:06;0.60;;;0.60;;
18100;SDS011;9177;49.156;8.142;2023-04-29T05:19:34;1.03;;;0.60;;
18100;SDS011;9177;49.156;8.142;2023-04-29T05:22:00;0.60;;;0.60;;
18100;SDS011;9177;49.156;8.142;2023-04-29T05:24:29;0.57;;;0.53;;
18100;SDS011;9177;49.156;8.142;2023-04-29T05:26:56;0.47;;;0.47;;
18100;SDS011;9177;49.156;8.142;2023-04-29T05:29:23;1.00;;;0.70;;
18100;SDS011;9177;49.156;8.142;2023-04-29T05:31:51;0.80;;;0.60;;
18100;SDS011;9177;49.156;8.142;2023-04-29T05:34:18;0.50;;;0.50;;
18100;SDS011;9177;49.156;8.142;2023-04-29T05:36:45;0.50;;;0.50;;
18100;SDS011;9177;49.156;8.142;2023-04-29T05:39:12;0.70;;;0.60;;
18100;SDS011;9177;49.156;8.142;2023-04-29T05:41:40;0.70;;;0.70;;
18100;SDS011;9177;49.156;8.142;2023-04-29T05:44:07;0.50;;;0.50;;
18100;SDS011;9177;49.156;8.142;2023-04-29T05:46:33;0.60;;;0.60;;
18100;SDS011;9177;49.156;8.142;2023-04-29T05:49:00;0.50;;;0.50;;
18100;SDS011;9177;49.156;8.142;2023-04-29T05:51:27;1.70;;;0.50;;
18100;SDS011;9177;49.156;8.142;2023-04-29T05:53:55;0.60;;;0.60;;
18100;SDS011;9177;49.156;8.142;2023-04-29T05:56:25;0.60;;;0.60;;
18100;SDS011;9177;49.156;8.142;2023-04-29T05:58:53;0.87;;;0.60;;
18100;SDS011;9177;49.156;8.142;2023-04-29T06:01:20;1.43;;;0.60;;
18100;SDS011;9177;49.156;8.142;2023-04-29T06:03:47;0.50;;;0.50;;
18100;SDS011;9177;49.156;8.142;2023-04-29T06:06:14;0.70;;;0.60;;
18100;SDS011;9177;49.156;8.142;2023-04-29T06:08:41;0.60;;;0.60;;
18100;SDS011;9177;49.156;8.142;2023-04-29T06:11:08;1.37;;;0.60;;
18100;SDS011;9177;49.156;8.142;2023-04-29T06:13:35;0.83;;;0.67;;
18100;SDS011;9177;49.156;8.142;2023-04-29T06:16:03;0.50;;;0.50;;
18100;SDS011;9177;49.156;8.142;2023-04-29T06:18:31;0.57;;;0.57;;
18100;SDS011;9177;49.156;8.142;2023-04-29T06:20:58;0.60;;;0.50;;
18100;SDS011;9177;49.156;8.142;2023-04-29T06:23:25;1.53;;;0.73;;
18100;SDS011;9177;49.156;8.142;2023-04-29T06:25:52;0.70;;;0.70;;
18100;SDS011;9177;49.156;8.142;2023-04-29T06:28:19;0.70;;;0.60;;
18100;SDS011;9177;49.156;8.142;2023-04-29T06:30:49;1.33;;;0.40;;
18100;SDS011;9177;49.156;8.142;2023-04-29T06:33:17;0.57;;;0.50;;
18100;SDS011;9177;49.156;8.142;2023-04-29T06:35:44;0.60;;;0.60;;
18100;SDS011;9177;49.156;8.142;2023-04-29T06:38:11;0.50;;;0.50;;
18100;SDS011;9177;49.156;8.142;2023-04-29T06:40:38;0.67;;;0.60;;
18100;SDS011;9177;49.156;8.142;2023-04-29T06:43:04;0.60;;;0.60;;
18100;SDS011;9177;49.156;8.142;2023-04-29T06:45:32;0.60;;;0.60;;
18100;SDS011;9177;49.156;8.142;2023-04-29T06:47:59;1.10;;;0.63;;
18100;SDS011;9177;49.156;8.142;2023-04-29T06:50:27;0.43;;;0.40;;
18100;SDS011;9177;49.156;8.142;2023-04-29T06:52:54;0.60;;;0.60;;
18100;SDS011;9177;49.156;8.142;2023-04-29T06:55:21;0.90;;;0.60;;
18100;SDS011;9177;49.156;8.142;2023-04-29T06:57:47;0.50;;;0.50;;
18100;SDS011;9177;49.156;8.142;2023-04-29T07:00:14;0.80;;;0.40;;
18100;SDS011;9177;49.156;8.142;2023-04-29T07:02:43;0.40;;;0.40;;
18100;SDS011;9177;49.156;8.142;2023-04-29T07:05:10;0.70;;;0.70;;
18100;SDS011;9177;49.156;8.142;2023-04-29T07:07:38;1.17;;;0.50;;
18100;SDS011;9177;49.156;8.142;2023-04-29T07:10:05;0.70;;;0.60;;
18100;SDS011;9177;49.156;8.142;2023-04-29T07:12:32;0.60;;;0.60;;
18100;SDS011;9177;49.156;8.142;2023-04-29T07:15:01;0.60;;;0.60;;
18100;SDS011;9177;49.156;8.142;2023-04-29T07:17:28;0.70;;;0.60;;
18100;SDS011;9177;49.156;8.142;2023-04-29T07:19:55;0.70;;;0.70;;
18100;SDS011;9177;49.156;8.142;2023-04-29T07:22:22;0.60;;;0.60;;
18100;SDS011;9177;49.156;8.142;2023-04-29T07:24:53;0.63;;;0.60;;
18100;SDS011;9177;49.156;8.142;2023-04-29T07:27:21;0.70;;;0.70;;
18100;SDS011;9177;49.156;8.142;2023-04-29T07:29:48;1.57;;;1.00;;
18100;SDS011;9177;49.156;8.142;2023-04-29T07:32:15;1.10;;;1.10;;
18100;SDS011;9177;49.156;8.142;2023-04-29T07:34:42;1.63;;;0.83;;
18100;SDS011;9177;49.156;8.142;2023-04-29T07:37:09;0.93;;;0.83;;
18100;SDS011;9177;49.156;8.142;2023-04-29T07:39:39;1.00;;;0.80;;
18100;SDS011;9177;49.156;8.142;2023-04-29T07:42:11;1.10;;;1.10;;
18100;SDS011;9177;49.156;8.142;2023-04-29T07:44:38;1.30;;;1.20;;
18100;SDS011;9177;49.156;8.142;2023-04-29T07:47:05;1.70;;;1.27;;
18100;SDS011;9177;49.156;8.142;2023-04-29T07:49:32;1.17;;;1.07;;
18100;SDS011;9177;49.156;8.142;2023-04-29T07:51:59;3.43;;;1.80;;
18100;SDS011;9177;49.156;8.142;2023-04-29T07:54:26;3.50;;;1.67;;
18100;SDS011;9177;49.156;8.142;2023-04-29T07:56:53;3.93;;;1.60;;
18100;SDS011;9177;49.156;8.142;2023-04-29T07:59:21;7.10;;;1.80;;
18100;SDS011;9177;49.156;8.142;2023-04-29T08:01:48;4.73;;;1.67;;
18100;SDS011;9177;49.156;8.142;2023-04-29T08:04:24;5.10;;;1.67;;
18100;SDS011;9177;49.156;8.142;2023-04-29T08:06:51;6.70;;;1.70;;
18100;SDS011;9177;49.156;8.142;2023-04-29T08:09:18;10.40;;;1.67;;
18100;SDS011;9177;49.156;8.142;2023-04-29T08:11:45;8.27;;;2.23;;
18100;SDS011;9177;49.156;8.142;2023-04-29T08:14:12;8.20;;;1.90;;
18100;SDS011;9177;49.156;8.142;2023-04-29T08:16:40;12.23;;;2.33;;
18100;SDS011;9177;49.156;8.142;2023-04-29T08:19:07;8.13;;;1.60;;
18100;SDS011;9177;49.156;8.142;2023-04-29T08:21:34;9.50;;;1.97;;
18100;SDS011;9177;49.156;8.142;2023-04-29T08:24:01;8.73;;;1.97;;
18100;SDS011;9177;49.156;8.142;2023-04-29T08:26:28;7.80;;;2.00;;
18100;SDS011;9177;49.156;8.142;2023-04-29T08:28:55;8.73;;;1.80;;
18100;SDS011;9177;49.156;8.142;2023-04-29T08:31:23;11.07;;;1.77;;
18100;SDS011;9177;49.156;8.142;2023-04-29T08:33:54;7.53;;;1.70;;
18100;SDS011;9177;49.156;8.142;2023-04-29T08:36:22;9.57;;;1.87;;
18100;SDS011;9177;49.156;8.142;2023-04-29T08:38:49;9.50;;;1.77;;
18100;SDS011;9177;49.156;8.142;2023-04-29T08:41:17;7.43;;;1.90;;
18100;SDS011;9177;49.156;8.142;2023-04-29T08:43:44;9.53;;;2.23;;
18100;SDS011;9177;49.156;8.142;2023-04-29T08:46:11;9.60;;;2.37;;
18100;SDS011;9177;49.156;8.142;2023-04-29T08:48:38;11.40;;;2.03;;
18100;SDS011;9177;49.156;8.142;2023-04-29T08:51:07;5.57;;;2.03;;
18100;SDS011;9177;49.156;8.142;2023-04-29T08:53:38;9.83;;;1.90;;
18100;SDS011;9177;49.156;8.142;2023-04-29T08:56:12;8.30;;;2.43;;
18100;SDS011;9177;49.156;8.142;2023-04-29T08:58:45;7.43;;;2.50;;
18100;SDS011;9177;49.156;8.142;2023-04-29T09:01:15;10.33;;;2.73;;
18100;SDS011;9177;49.156;8.142;2023-04-29T09:03:45;8.33;;;3.20;;
18100;SDS011;9177;49.156;8.142;2023-04-29T09:06:18;11.23;;;3.20;;
18100;SDS011;9177;49.156;8.142;2023-04-29T09:08:46;14.87;;;3.20;;
18100;SDS011;9177;49.156;8.142;2023-04-29T09:11:16;10.97;;;3.07;;
18100;SDS011;9177;49.156;8.142;2023-04-29T09:13:44;7.53;;;2.73;;
18100;SDS011;9177;49.156;8.142;2023-04-29T09:16:11;9.57;;;2.37;;
18100;SDS011;9177;49.156;8.142;2023-04-29T09:18:42;11.60;;;2.97;;
18100;SDS011;9177;49.156;8.142;2023-04-29T09:21:13;8.67;;;3.70;;
18100;SDS011;9177;49.156;8.142;2023-04-29T09:23:44;6.73;;;3.43;;
18100;SDS011;9177;49.156;8.142;2023-04-29T09:26:11;7.73;;;3.70;;
18100;SDS011;9177;49.156;8.142;2023-04-29T09:28:38;12.50;;;4.60;;
18100;SDS011;9177;49.156;8.142;2023-04-29T09:31:07;9.17;;;4.77;;
18100;SDS011;9177;49.156;8.142;2023-04-29T09:33:48;10.13;;;4.30;;
18100;SDS011;9177;49.156;8.142;2023-04-29T09:39:03;11.43;;;5.63;;
18100;SDS011;9177;49.156;8.142;2023-04-29T09:41:35;9.90;;;6.40;;
18100;SDS011;9177;49.156;8.142;2023-04-29T09:44:06;13.07;;;5.93;;
18100;SDS011;9177;49.156;8.142;2023-04-29T09:46:35;9.00;;;5.30;;
18100;SDS011;9177;49.156;8.142;2023-04-29T09:49:02;8.47;;;5.40;;
18100;SDS011;9177;49.156;8.142;2023-04-29T09:51:51;10.13;;;5.30;;
18100;SDS011;9177;49.156;8.142;2023-04-29T09:54:20;10.83;;;5.10;;
18100;SDS011;9177;49.156;8.142;2023-04-29T09:56:49;9.00;;;4.70;;
18100;SDS011;9177;49.156;8.142;2023-04-29T09:59:16;10.90;;;5.00;;
18100;SDS011;9177;49.156;8.142;2023-04-29T10:01:46;7.73;;;4.30;;
18100;SDS011;9177;49.156;8.142;2023-04-29T10:04:14;9.50;;;4.27;;
18100;SDS011;9177;49.156;8.142;2023-04-29T10:06:43;9.73;;;4.90;;
18100;SDS011;9177;49.156;8.142;2023-04-29T10:09:12;14.90;;;8.57;;
18100;SDS011;9177;49.156;8.142;2023-04-29T10:11:44;11.03;;;8.43;;
18100;SDS011;9177;49.156;8.142;2023-04-29T10:14:13;12.83;;;8.03;;
18100;SDS011;9177;49.156;8.142;2023-04-29T10:16:45;8.97;;;6.63;;
18100;SDS011;9177;49.156;8.142;2023-04-29T10:19:14;21.43;;;6.50;;
18100;SDS011;9177;49.156;8.142;2023-04-29T10:21:45;11.37;;;5.60;;
18100;SDS011;9177;49.156;8.142;2023-04-29T10:24:14;9.23;;;5.03;;
18100;SDS011;9177;49.156;8.142;2023-04-29T10:26:44;7.47;;;4.20;;
18100;SDS011;9177;49.156;8.142;2023-04-29T10:29:13;7.47;;;3.53;;
18100;SDS011;9177;49.156;8.142;2023-04-29T10:31:42;13.37;;;4.07;;
18100;SDS011;9177;49.156;8.142;2023-04-29T10:34:10;6.97;;;3.50;;
18100;SDS011;9177;49.156;8.142;2023-04-29T10:36:38;4.73;;;3.40;;
18100;SDS011;9177;49.156;8.142;2023-04-29T10:39:06;15.90;;;4.23;;
18100;SDS011;9177;49.156;8.142;2023-04-29T10:41:42;11.87;;;3.70;;
18100;SDS011;9177;49.156;8.142;2023-04-29T10:44:12;5.60;;;2.97;;
18100;SDS011;9177;49.156;8.142;2023-04-29T10:46:39;6.73;;;3.30;;
18100;SDS011;9177;49.156;8.142;2023-04-29T10:49:06;12.73;;;3.80;;
18100;SDS011;9177;49.156;8.142;2023-04-29T10:51:38;6.60;;;3.50;;
18100;SDS011;9177;49.156;8.142;2023-04-29T10:54:07;14.80;;;4.20;;
18100;SDS011;9177;49.156;8.142;2023-04-29T10:56:38;8.77;;;3.60;;
18100;SDS011;9177;49.156;8.142;2023-04-29T10:59:19;7.57;;;4.50;;
18100;SDS011;9177;49.156;8.142;2023-04-29T11:01:47;5.37;;;3.77;;
18100;SDS011;9177;49.156;8.142;2023-04-29T11:04:16;6.77;;;3.80;;
18100;SDS011;9177;49.156;8.142;2023-04-29T11:06:44;9.57;;;4.23;;
18100;SDS011;9177;49.156;8.142;2023-04-29T11:09:13;9.13;;;3.80;;
18100;SDS011;9177;49.156;8.142;2023-04-29T11:11:56;10.07;;;3.93;;
18100;SDS011;9177;49.156;8.142;2023-04-29T11:14:27;7.33;;;4.33;;
18100;SDS011;9177;49.156;8.142;2023-04-29T11:16:59;9.43;;;5.13;;
18100;SDS011;9177;49.156;8.142;2023-04-29T11:19:31;8.63;;;5.10;;
18100;SDS011;9177;49.156;8.142;2023-04-29T11:22:03;9.40;;;5.00;;
18100;SDS011;9177;49.156;8.142;2023-04-29T11:24:47;7.23;;;4.73;;
18100;SDS011;9177;49.156;8.142;2023-04-29T11:27:15;9.67;;;4.23;;
18100;SDS011;9177;49.156;8.142;2023-04-29T11:29:45;8.93;;;4.70;;
18100;SDS011;9177;49.156;8.142;2023-04-29T11:32:12;10.00;;;4.77;;
18100;SDS011;9177;49.156;8.142;2023-04-29T11:34:40;8.97;;;4.40;;
18100;SDS011;9177;49.156;8.142;2023-04-29T11:37:07;8.07;;;4.23;;
18100;SDS011;9177;49.156;8.142;2023-04-29T11:39:34;15.57;;;4.73;;
18100;SDS011;9177;49.156;8.142;2023-04-29T11:42:02;13.13;;;4.23;;
18100;SDS011;9177;49.156;8.142;2023-04-29T11:44:30;10.90;;;4.50;;
18100;SDS011;9177;49.156;8.142;2023-04-29T11:47:04;10.03;;;3.80;;
18100;SDS011;9177;49.156;8.142;2023-04-29T11:49:31;11.97;;;4.23;;
18100;SDS011;9177;49.156;8.142;2023-04-29T11:52:01;7.03;;;3.63;;
18100;SDS011;9177;49.156;8.142;2023-04-29T11:54:28;9.27;;;3.70;;
18100;SDS011;9177;49.156;8.142;2023-04-29T11:56:56;8.03;;;3.20;;
18100;SDS011;9177;49.156;8.142;2023-04-29T11:59:24;9.37;;;3.77;;
18100;SDS011;9177;49.156;8.142;2023-04-29T12:01:51;11.63;;;7.97;;
18100;SDS011;9177;49.156;8.142;2023-04-29T12:04:20;25.73;;;6.73;;
18100;SDS011;9177;49.156;8.142;2023-04-29T12:06:50;19.37;;;6.20;;
18100;SDS011;9177;49.156;8.142;2023-04-29T12:09:19;15.37;;;5.17;;
18100;SDS011;9177;49.156;8.142;2023-04-29T12:11:47;15.23;;;5.30;;
18100;SDS011;9177;49.156;8.142;2023-04-29T12:14:15;11.43;;;4.80;;
18100;SDS011;9177;49.156;8.142;2023-04-29T12:16:43;11.00;;;4.87;;
18100;SDS011;9177;49.156;8.142;2023-04-29T12:19:11;8.80;;;4.13;;
18100;SDS011;9177;49.156;8.142;2023-04-29T12:21:48;9.53;;;4.27;;
18100;SDS011;9177;49.156;8.142;2023-04-29T12:24:19;10.47;;;4.17;;
18100;SDS011;9177;49.156;8.142;2023-04-29T12:26:49;10.27;;;3.33;;
18100;SDS011;9177;49.156;8.142;2023-04-29T12:29:24;7.88;;;3.38;;
18100;SDS011;9177;49.156;8.142;2023-04-29T12:31:51;6.32;;;3.53;;
18100;SDS011;9177;49.156;8.142;2023-04-29T12:34:23;6.43;;;3.50;;
18100;SDS011;9177;49.156;8.142;2023-04-29T12:36:53;7.15;;;3.05;;
18100;SDS011;9177;49.156;8.142;2023-04-29T12:39:20;4.20;;;2.90;;
18100;SDS011;9177;49.156;8.142;2023-04-29T12:41:53;5.90;;;3.17;;
18100;SDS011;9177;49.156;8.142;2023-04-29T12:44:23;5.55;;;2.90;;
18100;SDS011;9177;49.156;8.142;2023-04-29T12:46:51;11.70;;;3.38;;
18100;SDS011;9177;49.156;8.142;2023-04-29T12:49:18;4.22;;;3.20;;
18100;SDS011;9177;49.156;8.142;2023-04-29T12:51:45;4.90;;;2.95;;
18100;SDS011;9177;49.156;8.142;2023-04-29T12:54:13;7.77;;;3.10;;
18100;SDS011;9177;49.156;8.142;2023-04-29T12:56:40;7.13;;;2.77;;
18100;SDS011;9177;49.156;8.142;2023-04-29T12:59:08;7.00;;;3.30;;
18100;SDS011;9177;49.156;8.142;2023-04-29T13:01:36;8.68;;;3.50;;
18100;SDS011;9177;49.156;8.142;2023-04-29T13:04:03;8.48;;;3.85;;
18100;SDS011;9177;49.156;8.142;2023-04-29T13:06:36;13.85;;;4.28;;
18100;SDS011;9177;49.156;8.142;2023-04-29T13:09:05;8.73;;;3.50;;
18100;SDS011;9177;49.156;8.142;2023-04-29T13:11:36;13.57;;;4.43;;
18100;SDS011;9177;49.156;8.142;2023-04-29T13:14:04;10.18;;;4.00;;
18100;SDS011;9177;49.156;8.142;2023-04-29T13:16:31;9.88;;;4.03;;
18100;SDS011;9177;49.156;8.142;2023-04-29T13:18:58;13.87;;;4.90;;
18100;SDS011;9177;49.156;8.142;2023-04-29T13:21:25;18.50;;;10.63;;
18100;SDS011;9177;49.156;8.142;2023-04-29T13:23:52;16.77;;;8.60;;
18100;SDS011;9177;49.156;8.142;2023-04-29T13:26:19;9.33;;;6.43;;
18100;SDS011;9177;49.156;8.142;2023-04-29T13:28:49;11.00;;;6.90;;
18100;SDS011;9177;49.156;8.142;2023-04-29T13:31:16;12.50;;;6.30;;
18100;SDS011;9177;49.156;8.142;2023-04-29T13:33:43;13.50;;;6.40;;
18100;SDS011;9177;49.156;8.142;2023-04-29T13:36:11;13.40;;;6.53;;
18100;SDS011;9177;49.156;8.142;2023-04-29T13:38:41;14.40;;;6.53;;
18100;SDS011;9177;49.156;8.142;2023-04-29T13:41:07;15.37;;;5.47;;
18100;SDS011;9177;49.156;8.142;2023-04-29T13:43:38;12.83;;;5.63;;
18100;SDS011;9177;49.156;8.142;2023-04-29T13:46:06;10.17;;;4.67;;
18100;SDS011;9177;49.156;8.142;2023-04-29T13:48:33;11.52;;;5.32;;
18100;SDS011;9177;49.156;8.142;2023-04-29T13:51:00;12.30;;;5.90;;
18100;SDS011;9177;49.156;8.142;2023-04-29T13:53:27;15.27;;;7.33;;
18100;SDS011;9177;49.156;8.142;2023-04-29T13:55:54;18.37;;;7.40;;
18100;SDS011;9177;49.156;8.142;2023-04-29T13:58:21;18.47;;;7.70;;
18100;SDS011;9177;49.156;8.142;2023-04-29T14:00:48;23.50;;;7.27;;
18100;SDS011;9177;49.156;8.142;2023-04-29T14:03:16;15.73;;;7.23;;
18100;SDS011;9177;49.156;8.142;2023-04-29T14:05:43;14.50;;;7.40;;
18100;SDS011;9177;49.156;8.142;2023-04-29T14:08:10;14.10;;;6.53;;
18100;SDS011;9177;49.156;8.142;2023-04-29T14:10:37;13.93;;;6.33;;
18100;SDS011;9177;49.156;8.142;2023-04-29T14:13:05;15.57;;;5.60;;
18100;SDS011;9177;49.156;8.142;2023-04-29T14:15:32;18.40;;;5.80;;
18100;SDS011;9177;49.156;8.142;2023-04-29T14:17:59;14.57;;;6.47;;
18100;SDS011;9177;49.156;8.142;2023-04-29T14:20:27;16.87;;;5.90;;
18100;SDS011;9177;49.156;8.142;2023-04-29T14:22:54;15.93;;;5.63;;
18100;SDS011;9177;49.156;8.142;2023-04-29T14:25:21;13.77;;;4.73;;
18100;SDS011;9177;49.156;8.142;2023-04-29T14:27:48;11.47;;;5.17;;
18100;SDS011;9177;49.156;8.142;2023-04-29T14:30:15;13.67;;;4.50;;
18100;SDS011;9177;49.156;8.142;2023-04-29T14:32:42;13.80;;;5.63;;
18100;SDS011;9177;49.156;8.142;2023-04-29T14:35:10;16.05;;;4.97;;
18100;SDS011;9177;49.156;8.142;2023-04-29T14:37:38;11.30;;;4.55;;
18100;SDS011;9177;49.156;8.142;2023-04-29T14:40:05;10.10;;;5.03;;
18100;SDS011;9177;49.156;8.142;2023-04-29T14:42:33;13.57;;;5.30;;
18100;SDS011;9177;49.156;8.142;2023-04-29T14:45:00;15.77;;;5.05;;
18100;SDS011;9177;49.156;8.142;2023-04-29T14:47:27;19.75;;;5.43;;
18100;SDS011;9177;49.156;8.142;2023-04-29T14:49:54;14.48;;;5.15;;
18100;SDS011;9177;49.156;8.142;2023-04-29T14:52:21;13.38;;;5.82;;
18100;SDS011;9177;49.156;8.142;2023-04-29T14:54:49;10.67;;;4.33;;
18100;SDS011;9177;49.156;8.142;2023-04-29T14:57:16;13.33;;;5.03;;
18100;SDS011;9177;49.156;8.142;2023-04-29T14:59:43;10.60;;;4.67;;
18100;SDS011;9177;49.156;8.142;2023-04-29T15:02:10;10.97;;;5.10;;
18100;SDS011;9177;49.156;8.142;2023-04-29T15:04:37;13.63;;;4.90;;
18100;SDS011;9177;49.156;8.142;2023-04-29T15:07:09;12.17;;;5.73;;